Time;durP1;ratioP1;P1;durP2;ratioP2;P2;SDS_P1;SDS_P2;PMS_P1;PMS_P2;Temp;Humidity;BMP_temperature;BMP_pressure;BME280_temperature;BME280_humidity;BME280_pressure;Samples;Min_cycle;Max_cycle;Signal;HPM_P1;HPM_P2
2023/10/22 00:03:11;;;;;;;2.83;2.50;;;;;;;9.13;0.00;100162.94;6209908;28;20253;-71
2023/10/22 00:06:32;;;;;;;1.63;1.40;;;;;;;9.09;0.00;100161.53;6204721;28;20217;-71
2023/10/22 00:09:54;;;;;;;2.37;2.13;;;;;;;9.07;0.00;100165.34;6204613;28;20232;-71
2023/10/22 00:13:15;;;;;;;2.30;2.00;;;;;;;9.04;1.57;100169.19;6201862;28;20587;-71
2023/10/22 00:16:36;;;;;;;2.77;1.57;;;;;;;9.04;6.36;100169.19;6203396;28;20269;-71
2023/10/22 00:19:57;;;;;;;2.97;1.97;;;;;;;9.04;11.92;100173.69;6203720;28;20499;-70
2023/10/22 00:23:19;;;;;;;1.90;1.80;;;;;;;9.06;14.98;100171.72;6203162;28;20248;-71
2023/10/22 00:26:41;;;;;;;3.93;2.93;;;;;;;9.12;20.16;100177.38;6204053;28;20241;-71
2023/10/22 00:30:02;;;;;;;3.13;2.10;;;;;;;9.11;25.22;100166.75;6205731;28;20603;-72
2023/10/22 00:33:24;;;;;;;3.53;2.40;;;;;;;9.06;31.38;100177.94;6198286;28;20229;-72
2023/10/22 00:36:45;;;;;;;4.97;1.70;;;;;;;9.05;37.44;100170.88;6203602;28;20233;-71
2023/10/22 00:40:08;;;;;;;2.77;2.03;;;;;;;9.00;42.88;100172.28;6201179;28;20225;-72
2023/10/22 00:43:30;;;;;;;2.23;1.77;;;;;;;9.05;45.57;100165.50;6200138;28;20237;-71
2023/10/22 00:46:51;;;;;;;2.77;1.80;;;;;;;8.94;51.09;100164.81;6207633;28;20252;-71
2023/10/22 00:50:13;;;;;;;2.23;2.03;;;;;;;8.91;54.63;100171.31;6205720;28;20824;-72
2023/10/22 00:53:34;;;;;;;1.83;1.73;;;;;;;8.92;58.29;100172.16;6208677;28;20496;-71
2023/10/22 00:56:56;;;;;;;6.03;3.20;;;;;;;8.93;61.11;100180.06;6205285;28;20229;-71
2023/10/22 01:00:20;;;;;;;2.43;2.23;;;;;;;8.94;65.08;100173.72;6206403;28;20237;-72
2023/10/22 01:03:41;;;;;;;3.10;2.30;;;;;;;8.96;68.61;100169.03;6204310;28;20232;-71
2023/10/22 01:07:05;;;;;;;4.57;2.10;;;;;;;8.91;73.23;100173.16;6195295;28;20225;-70
2023/10/22 01:10:25;;;;;;;2.43;1.70;;;;;;;8.95;76.26;100164.66;6203428;28;20649;-72
2023/10/22 01:13:46;;;;;;;2.27;2.07;;;;;;;8.89;81.81;100167.09;6201475;28;20622;-72
2023/10/22 01:17:09;;;;;;;2.10;1.77;;;;;;;8.87;84.98;100164.53;6203628;28;20228;-71
2023/10/22 01:20:30;;;;;;;2.67;1.87;;;;;;;8.81;89.74;100170.47;6193796;28;20236;-71
2023/10/22 01:23:53;;;;;;;3.13;2.13;;;;;;;8.80;90.10;100163.41;6202642;28;20229;-71
2023/10/22 01:27:14;;;;;;;2.77;2.13;;;;;;;8.76;91.73;100160.13;6204278;28;20245;-71
2023/10/22 01:30:35;;;;;;;8.37;3.10;;;;;;;8.81;94.09;100174.00;6206831;28;20232;-72
2023/10/22 01:33:56;;;;;;;2.23;1.93;;;;;;;8.81;96.61;100168.63;6208206;28;20233;-71
2023/10/22 01:37:17;;;;;;;2.47;2.00;;;;;;;8.76;99.32;100168.19;6203141;28;20245;-71
2023/10/22 01:40:39;;;;;;;2.27;2.00;;;;;;;8.75;100.00;100173.72;6205870;28;20578;-71
2023/10/22 01:44:00;;;;;;;2.90;1.90;;;;;;;8.71;100.00;100173.16;6210123;28;20232;-71
2023/10/22 01:47:21;;;;;;;3.70;2.50;;;;;;;8.68;100.00;100169.91;6215766;28;20324;-71
2023/10/22 01:50:42;;;;;;;3.30;2.23;;;;;;;8.65;100.00;100167.50;6206263;28;20278;-71
2023/10/22 01:54:05;;;;;;;2.53;2.27;;;;;;;8.65;100.00;100171.06;6206084;28;20606;-71
2023/10/22 01:57:27;;;;;;;2.43;2.23;;;;;;;8.61;100.00;100171.47;6207403;28;20237;-71
2023/10/22 02:00:49;;;;;;;2.50;2.30;;;;;;;8.66;100.00;100166.50;6204713;28;20789;-71
2023/10/22 02:04:10;;;;;;;1.70;1.40;;;;;;;8.63;100.00;100169.50;6202570;28;20240;-70
2023/10/22 02:07:31;;;;;;;2.13;1.73;;;;;;;8.61;100.00;100168.78;6205321;28;20591;-71
2023/10/22 02:10:52;;;;;;;1.87;1.63;;;;;;;8.60;100.00;100175.13;6207691;28;20229;-71
2023/10/22 02:14:14;;;;;;;2.00;1.90;;;;;;;8.64;100.00;100169.34;6207269;28;20256;-71
2023/10/22 02:17:35;;;;;;;2.97;2.07;;;;;;;8.65;100.00;100164.81;6208569;28;20237;-71
2023/10/22 02:20:58;;;;;;;4.43;1.87;;;;;;;8.65;100.00;100160.31;6211946;28;20253;-70
2023/10/22 02:24:19;;;;;;;2.23;1.33;;;;;;;8.65;100.00;100157.63;6206594;28;20229;-71
2023/10/22 02:27:40;;;;;;;2.50;1.80;;;;;;;8.60;100.00;100156.31;6205967;28;20256;-71
2023/10/22 02:31:04;;;;;;;2.40;2.20;;;;;;;8.55;100.00;100159.44;6204365;28;20232;-71
2023/10/22 02:34:25;;;;;;;2.60;1.93;;;;;;;8.52;100.00;100167.78;6204902;28;20229;-72
2023/10/22 02:37:47;;;;;;;2.53;1.73;;;;;;;8.55;100.00;100162.13;6205122;28;20241;-71
2023/10/22 02:41:08;;;;;;;1.50;1.40;;;;;;;8.56;100.00;100157.59;6204942;28;20229;-71
2023/10/22 02:44:29;;;;;;;1.70;1.40;;;;;;;8.53;100.00;100155.22;6205966;28;20225;-72
2023/10/22 02:47:51;;;;;;;1.83;1.37;;;;;;;8.52;100.00;100159.72;6199670;28;20606;-71
2023/10/22 02:51:12;;;;;;;1.93;1.60;;;;;;;8.58;100.00;100167.22;6204659;28;20635;-71
2023/10/22 02:54:33;;;;;;;3.23;1.87;;;;;;;8.54;100.00;100159.59;6204767;28;20233;-71
2023/10/22 02:57:53;;;;;;;2.40;2.20;;;;;;;8.57;100.00;100151.25;6204754;28;20232;-71
2023/10/22 03:01:15;;;;;;;2.60;1.77;;;;;;;8.57;100.00;100157.44;6203524;28;20328;-71
2023/10/22 03:04:37;;;;;;;1.73;1.63;;;;;;;8.55;100.00;100170.19;6205179;28;20225;-69
2023/10/22 03:07:59;;;;;;;2.03;1.87;;;;;;;8.59;100.00;100166.25;6205445;28;20229;-71
2023/10/22 03:11:20;;;;;;;1.67;1.57;;;;;;;8.57;100.00;100164.69;6202669;28;20221;-70
2023/10/22 03:14:41;;;;;;;4.27;2.20;;;;;;;8.58;100.00;100169.06;6202887;28;20230;-71
2023/10/22 03:18:03;;;;;;;2.57;1.40;;;;;;;8.55;100.00;100178.22;6206760;28;20616;-70
2023/10/22 03:21:28;;;;;;;6.17;2.40;;;;;;;8.54;100.00;100179.25;6202079;28;20237;-71
2023/10/22 03:24:49;;;;;;;2.90;2.57;;;;;;;8.56;100.00;100173.72;6206069;28;20233;-70
2023/10/22 03:28:10;;;;;;;4.43;2.23;;;;;;;8.58;100.00;100172.59;6203947;28;20236;-71
2023/10/22 03:31:31;;;;;;;1.77;1.63;;;;;;;8.57;100.00;100167.38;6214395;28;20591;-70
2023/10/22 03:34:52;;;;;;;2.00;1.80;;;;;;;8.57;100.00;100172.75;6203389;28;20229;-71
2023/10/22 03:38:14;;;;;;;2.13;1.93;;;;;;;8.55;100.00;100177.41;6203840;28;20236;-71
2023/10/22 03:41:35;;;;;;;1.97;1.73;;;;;;;8.57;100.00;100180.81;6199726;28;20241;-71
2023/10/22 03:44:56;;;;;;;1.60;1.50;;;;;;;8.54;100.00;100178.38;6205051;28;20252;-71
2023/10/22 03:48:19;;;;;;;1.43;1.33;;;;;;;8.49;100.00;100172.59;6202889;28;20236;-71
2023/10/22 03:51:40;;;;;;;1.50;1.40;;;;;;;8.45;100.00;100179.25;6203090;28;20332;-71
2023/10/22 03:55:04;;;;;;;2.00;1.50;;;;;;;8.48;100.00;100169.06;6211150;28;20328;-70
2023/10/22 03:58:26;;;;;;;2.60;1.83;;;;;;;8.48;100.00;100174.44;6209004;28;20241;-71
2023/10/22 04:01:46;;;;;;;4.13;1.80;;;;;;;8.49;100.00;100175.28;6203058;28;20240;-71
2023/10/22 04:05:08;;;;;;;2.80;1.83;;;;;;;8.53;100.00;100176.69;6201151;28;20237;-72
2023/10/22 04:08:29;;;;;;;1.60;1.50;;;;;;;8.49;100.00;100176.13;6203432;28;20252;-70
2023/10/22 04:11:51;;;;;;;2.30;2.00;;;;;;;8.52;100.00;100175.00;6203968;28;20225;-70
2023/10/22 04:15:12;;;;;;;2.47;1.30;;;;;;;8.42;100.00;100185.75;6208389;28;20304;-70
2023/10/22 04:18:32;;;;;;;3.30;1.97;;;;;;;8.36;100.00;100178.25;6204097;28;20261;-71
2023/10/22 04:21:53;;;;;;;2.23;1.37;;;;;;;8.35;100.00;100189.94;6204739;28;20241;-71
2023/10/22 04:25:15;;;;;;;3.30;1.77;;;;;;;8.36;100.00;100183.63;6202006;28;20315;-72
2023/10/22 04:28:37;;;;;;;2.13;1.80;;;;;;;8.39;100.00;100186.00;6196405;28;20871;-71
2023/10/22 04:31:58;;;;;;;1.60;1.50;;;;;;;8.33;100.00;100188.38;6208166;28;20615;-72
2023/10/22 04:35:19;;;;;;;2.53;1.90;;;;;;;8.36;100.00;100188.13;6202566;28;20225;-72
2023/10/22 04:38:40;;;;;;;3.07;1.77;;;;;;;8.39;100.00;100188.69;6203439;28;20238;-70
2023/10/22 04:42:01;;;;;;;5.57;1.97;;;;;;;8.36;100.00;100188.97;6203632;28;20233;-71
2023/10/22 04:45:23;;;;;;;1.73;1.63;;;;;;;8.37;100.00;100190.66;6203118;28;20225;-71
2023/10/22 04:48:44;;;;;;;1.73;1.63;;;;;;;8.30;100.00;100181.50;6202121;28;20233;-71
2023/10/22 04:52:09;;;;;;;2.07;1.50;;;;;;;8.35;100.00;100189.94;6203670;28;20508;-71
2023/10/22 04:55:30;;;;;;;2.90;1.70;;;;;;;8.39;100.00;100187.81;6201478;28;20233;-71
2023/10/22 04:58:51;;;;;;;1.00;1.00;;;;;;;8.41;100.00;100185.84;6196654;28;20225;-71
2023/10/22 05:02:13;;;;;;;3.97;1.40;;;;;;;8.40;100.00;100189.53;6196780;28;20230;-72
2023/10/22 05:05:36;;;;;;;2.37;1.97;;;;;;;8.47;100.00;100196.88;6201789;28;20217;-71
2023/10/22 05:08:57;;;;;;;2.53;1.60;;;;;;;8.39;100.00;100195.88;6211985;28;20233;-71
2023/10/22 05:12:18;;;;;;;2.00;1.90;;;;;;;8.36;100.00;100199.72;6208959;28;20332;-72
2023/10/22 05:15:39;;;;;;;2.10;1.33;;;;;;;8.41;100.00;100208.19;6206975;28;20493;-71
2023/10/22 05:19:01;;;;;;;1.37;1.23;;;;;;;8.45;100.00;100216.84;6205124;28;20595;-72
2023/10/22 05:22:22;;;;;;;2.00;1.30;;;;;;;8.43;100.00;100208.03;6205609;28;20316;-71
2023/10/22 05:25:43;;;;;;;1.93;1.63;;;;;;;8.41;100.00;100218.94;6205579;28;20591;-72
2023/10/22 05:29:04;;;;;;;1.30;1.17;;;;;;;8.44;100.00;100220.50;6203440;28;20733;-71
2023/10/22 05:32:25;;;;;;;3.90;1.37;;;;;;;8.45;100.00;100224.91;6205145;28;20233;-72
2023/10/22 05:35:47;;;;;;;2.50;2.23;;;;;;;8.41;100.00;100232.38;6204367;28;20237;-72
2023/10/22 05:39:09;;;;;;;2.43;1.53;;;;;;;8.46;100.00;100224.75;6210072;28;20346;-72
2023/10/22 05:42:30;;;;;;;5.30;2.20;;;;;;;8.46;100.00;100231.97;6204461;28;20229;-73
2023/10/22 05:45:56;;;;;;;3.07;1.80;;;;;;;8.44;100.00;100234.78;6204593;28;20226;-72
2023/10/22 05:49:17;;;;;;;2.07;1.33;;;;;;;8.41;100.00;100248.47;6203033;28;20229;-72
2023/10/22 05:52:39;;;;;;;4.10;1.40;;;;;;;8.44;100.00;100250.03;6207087;28;20312;-72
2023/10/22 05:56:00;;;;;;;1.23;1.13;;;;;;;8.36;100.00;100257.94;6212621;28;20229;-71
2023/10/22 05:59:21;;;;;;;1.70;1.53;;;;;;;8.38;100.00;100256.81;6201891;28;20233;-71
2023/10/22 06:02:43;;;;;;;2.33;1.77;;;;;;;8.37;100.00;100262.31;6209716;28;20622;-72
2023/10/22 06:06:04;;;;;;;3.47;1.87;;;;;;;8.43;100.00;100268.00;6207510;28;20578;-72
2023/10/22 06:09:26;;;;;;;4.90;1.83;;;;;;;8.49;100.00;100264.75;6204323;28;20233;-72
2023/10/22 06:12:49;;;;;;;3.03;1.67;;;;;;;8.54;100.00;100272.41;6203779;28;20518;-72
2023/10/22 06:16:10;;;;;;;3.37;1.93;;;;;;;8.50;100.00;100273.66;6199207;28;20234;-71
2023/10/22 06:19:32;;;;;;;2.87;1.20;;;;;;;8.46;100.00;100275.78;6213186;28;20638;-71
2023/10/22 06:22:53;;;;;;;1.63;1.53;;;;;;;8.54;100.00;100280.47;6209582;28;20614;-71
2023/10/22 06:26:15;;;;;;;2.93;1.17;;;;;;;8.54;100.00;100291.22;6207369;28;21782;-71
2023/10/22 06:29:36;;;;;;;2.33;1.67;;;;;;;8.55;100.00;100293.75;6194816;28;20232;-72
2023/10/22 06:32:58;;;;;;;1.53;1.43;;;;;;;8.62;100.00;100294.91;6209836;28;20257;-72
2023/10/22 06:36:20;;;;;;;1.00;0.90;;;;;;;8.69;100.00;100295.22;6207422;28;20568;-71
2023/10/22 06:39:41;;;;;;;2.20;2.10;;;;;;;8.78;100.00;100297.06;6206367;28;20293;-71
2023/10/22 06:43:04;;;;;;;2.00;1.00;;;;;;;8.71;100.00;100296.78;6204151;28;20563;-71
2023/10/22 06:46:25;;;;;;;2.87;2.10;;;;;;;8.74;100.00;100306.41;6198432;28;20286;-71
2023/10/22 06:49:46;;;;;;;1.67;1.23;;;;;;;8.76;100.00;100304.44;6205718;28;20860;-72
2023/10/22 06:53:07;;;;;;;1.73;1.50;;;;;;;8.81;100.00;100307.53;6202518;28;20233;-72
2023/10/22 06:56:28;;;;;;;2.93;2.33;;;;;;;8.86;100.00;100305.28;6201449;28;20358;-71
2023/10/22 06:59:52;;;;;;;3.23;1.63;;;;;;;9.01;100.00;100311.09;6205029;28;20241;-71
2023/10/22 07:03:13;;;;;;;1.47;1.00;;;;;;;9.17;100.00;100314.06;6202390;28;20650;-71
2023/10/22 07:06:34;;;;;;;2.87;0.90;;;;;;;9.25;100.00;100316.91;6200238;28;20614;-70
2023/10/22 07:09:55;;;;;;;1.73;1.20;;;;;;;9.30;100.00;100318.19;6205883;28;20505;-71
2023/10/22 07:13:18;;;;;;;1.20;1.07;;;;;;;9.29;100.00;100327.25;6207586;28;20614;-70
2023/10/22 07:16:40;;;;;;;1.33;1.23;;;;;;;9.29;100.00;100313.78;6204484;28;20229;-70
2023/10/22 07:20:01;;;;;;;1.80;1.37;;;;;;;9.40;100.00;100324.41;6206124;28;20654;-71
2023/10/22 07:23:22;;;;;;;6.47;1.53;;;;;;;9.46;100.00;100325.69;6204664;28;20228;-70
2023/10/22 07:26:43;;;;;;;1.17;1.07;;;;;;;9.44;100.00;100323.13;6210004;28;20240;-71
2023/10/22 07:30:05;;;;;;;3.63;2.13;;;;;;;9.36;100.00;100320.31;6200574;28;20858;-72
2023/10/22 07:33:28;;;;;;;2.17;1.23;;;;;;;9.35;100.00;100315.91;6208968;28;20236;-71
2023/10/22 07:36:48;;;;;;;3.37;1.93;;;;;;;9.47;100.00;100322.00;6202686;28;20325;-71
2023/10/22 07:40:10;;;;;;;2.67;1.33;;;;;;;9.43;100.00;100324.13;6204732;28;20233;-70
2023/10/22 07:43:31;;;;;;;1.90;1.50;;;;;;;9.59;100.00;100315.47;6204533;28;20252;-70
2023/10/22 07:46:52;;;;;;;2.03;1.20;;;;;;;9.74;100.00;100326.66;6206471;28;20225;-71
2023/10/22 07:50:14;;;;;;;1.67;1.50;;;;;;;9.95;100.00;100319.25;6205856;28;20236;-71
2023/10/22 07:53:35;;;;;;;2.93;1.60;;;;;;;10.10;100.00;100325.81;6203585;28;20233;-70
2023/10/22 07:56:57;;;;;;;3.23;2.07;;;;;;;10.36;100.00;100316.13;6202971;28;20241;-70
2023/10/22 08:00:18;;;;;;;2.10;1.67;;;;;;;10.65;100.00;100318.69;6202281;28;20316;-71
2023/10/22 08:03:39;;;;;;;2.17;1.97;;;;;;;10.79;100.00;100318.16;6207866;28;20232;-71
2023/10/22 08:07:02;;;;;;;1.20;1.10;;;;;;;10.96;100.00;100328.13;6199224;28;20720;-71
2023/10/22 08:10:23;;;;;;;1.17;0.90;;;;;;;10.87;100.00;100323.66;6202711;28;20694;-70
2023/10/22 08:13:44;;;;;;;1.70;1.60;;;;;;;10.86;100.00;100325.53;6205328;28;20229;-70
2023/10/22 08:17:05;;;;;;;2.77;1.50;;;;;;;10.88;100.00;100333.44;6205656;28;20217;-71
2023/10/22 08:20:26;;;;;;;2.23;1.40;;;;;;;10.74;100.00;100329.44;6203392;28;20241;-70
2023/10/22 08:23:48;;;;;;;2.97;1.73;;;;;;;10.74;100.00;100336.66;6199810;28;20323;-72
2023/10/22 08:27:09;;;;;;;3.40;2.10;;;;;;;10.82;100.00;100340.31;6199561;28;20244;-71
2023/10/22 08:30:30;;;;;;;2.50;2.27;;;;;;;10.99;100.00;100347.56;6199433;28;20312;-71
2023/10/22 08:33:51;;;;;;;2.90;1.40;;;;;;;11.10;100.00;100335.69;6213465;28;20237;-70
2023/10/22 08:37:12;;;;;;;2.23;1.80;;;;;;;11.39;100.00;100339.03;6210577;28;20233;-71
2023/10/22 08:40:37;;;;;;;3.67;2.17;;;;;;;11.77;100.00;100341.41;6200213;28;20237;-71
2023/10/22 08:43:59;;;;;;;3.47;1.47;;;;;;;11.85;100.00;100335.22;6212881;28;20311;-69
2023/10/22 08:47:20;;;;;;;1.37;1.27;;;;;;;12.14;100.00;100329.53;6217576;28;20241;-70
2023/10/22 08:50:44;;;;;;;1.47;1.30;;;;;;;12.01;100.00;100332.66;6205932;28;20786;-71
2023/10/22 08:54:09;;;;;;;0.70;0.70;;;;;;;12.01;100.00;100341.59;6206327;28;20230;-70
2023/10/22 08:57:31;;;;;;;1.67;1.00;;;;;;;11.93;100.00;100333.44;6202501;28;20658;-71
2023/10/22 09:00:52;;;;;;;1.90;1.53;;;;;;;11.88;100.00;100346.59;6212128;28;20634;-71
2023/10/22 09:04:13;;;;;;;1.57;1.47;;;;;;;11.76;100.00;100355.94;6211166;28;22282;-71
2023/10/22 09:07:50;;;;;;;1.57;1.13;;;;;;;11.78;100.00;100358.47;6212399;28;20290;-71
2023/10/22 09:11:13;;;;;;;1.60;0.90;;;;;;;11.81;100.00;100366.25;6207094;28;20245;-71
2023/10/22 09:14:36;;;;;;;4.00;1.10;;;;;;;11.90;100.00;100355.38;6201396;28;20229;-70
2023/10/22 09:18:02;;;;;;;1.70;1.03;;;;;;;12.03;100.00;100361.22;6203826;28;20238;-70
2023/10/22 09:21:23;;;;;;;3.63;1.53;;;;;;;12.05;100.00;100363.75;6205992;28;20308;-70
2023/10/22 09:24:49;;;;;;;2.17;1.30;;;;;;;12.01;100.00;100356.97;6201171;28;21698;-70
2023/10/22 09:28:20;;;;;;;3.37;1.30;;;;;;;12.01;100.00;100365.91;6211393;28;20229;-70
2023/10/22 09:31:50;;;;;;;1.83;1.07;;;;;;;12.00;100.00;100366.94;6198530;28;20229;-69
2023/10/22 09:35:14;;;;;;;1.17;1.00;;;;;;;11.96;100.00;100373.66;6207585;28;20501;-70
2023/10/22 09:38:43;;;;;;;3.03;1.33;;;;;;;11.92;100.00;100380.38;6199796;28;20225;-70
2023/10/22 09:42:05;;;;;;;1.40;1.30;;;;;;;11.84;100.00;100379.47;6204508;28;20232;-71
2023/10/22 09:45:27;;;;;;;1.53;1.20;;;;;;;11.82;100.00;100378.75;6201789;28;20244;-71
2023/10/22 09:48:50;;;;;;;2.53;1.97;;;;;;;11.78;100.00;100383.63;6200223;28;20229;-70
2023/10/22 09:52:14;;;;;;;2.20;1.27;;;;;;;11.79;100.00;100384.47;6196957;28;20225;-70
2023/10/22 09:55:39;;;;;;;1.50;1.40;;;;;;;11.77;100.00;100387.34;6198194;28;20253;-71
2023/10/22 09:59:04;;;;;;;2.30;2.00;;;;;;;11.77;100.00;100397.28;6198961;28;20260;-70
2023/10/22 10:02:26;;;;;;;1.43;1.33;;;;;;;11.74;100.00;100394.91;6199932;28;20225;-71
2023/10/22 10:05:48;;;;;;;2.77;1.43;;;;;;;11.69;100.00;100403.47;6206725;28;20336;-70
2023/10/22 10:09:10;;;;;;;2.23;1.37;;;;;;;11.68;100.00;100396.34;6205453;28;20316;-70
2023/10/22 10:12:31;;;;;;;2.57;1.73;;;;;;;11.67;100.00;100404.63;6210526;28;20308;-71
2023/10/22 10:15:59;;;;;;;1.23;1.17;;;;;;;11.66;100.00;100414.56;6210792;28;20229;-69
2023/10/22 10:19:22;;;;;;;1.37;1.27;;;;;;;11.70;100.00;100409.72;6209427;28;20228;-69
2023/10/22 10:22:44;;;;;;;3.63;1.83;;;;;;;11.71;100.00;100431.16;6211026;28;20225;-70
2023/10/22 10:26:30;;;;;;;3.57;1.50;;;;;;;11.72;100.00;100422.03;6204038;28;20241;-70
2023/10/22 10:30:16;;;;;;;2.60;1.90;;;;;;;11.76;100.00;100414.50;6210304;28;20237;-70
2023/10/22 10:34:01;;;;;;;1.90;1.47;;;;;;;11.78;100.00;100426.00;6208418;28;20690;-70
2023/10/22 10:37:24;;;;;;;1.60;1.50;;;;;;;11.83;100.00;100431.75;6206292;28;20229;-71
2023/10/22 10:40:48;;;;;;;4.70;1.97;;;;;;;11.86;100.00;100437.72;6206182;28;20233;-70
2023/10/22 10:44:09;;;;;;;1.17;0.90;;;;;;;11.89;100.00;100445.50;6210121;28;20233;-70
2023/10/22 10:47:36;;;;;;;1.60;1.50;;;;;;;11.94;100.00;100458.53;6205254;28;20229;-71
2023/10/22 10:51:19;;;;;;;1.63;0.90;;;;;;;11.96;100.00;100457.41;6199099;28;20272;-71
2023/10/22 10:54:39;;;;;;;1.10;1.00;;;;;;;11.97;100.00;100467.19;6206991;28;20347;-69
2023/10/22 10:58:03;;;;;;;0.97;0.90;;;;;;;11.98;100.00;100460.78;6205308;28;20230;-70
2023/10/22 11:01:24;;;;;;;1.27;1.10;;;;;;;11.95;100.00;100462.97;6212173;28;20680;-70
2023/10/22 11:04:46;;;;;;;1.30;1.20;;;;;;;11.90;100.00;100474.22;6197506;28;20603;-69
2023/10/22 11:08:12;;;;;;;2.30;0.80;;;;;;;11.90;100.00;100471.53;6201137;28;20256;-70
2023/10/22 11:11:33;;;;;;;1.40;1.20;;;;;;;11.94;100.00;100469.34;6203524;28;20237;-70
2023/10/22 11:14:56;;;;;;;0.77;0.77;;;;;;;11.96;100.00;100470.03;6210924;28;20225;-70
2023/10/22 11:18:16;;;;;;;3.87;1.23;;;;;;;12.15;100.00;100479.84;6208825;28;20229;-69
2023/10/22 11:21:37;;;;;;;1.63;1.10;;;;;;;12.15;100.00;100477.13;6210020;28;20304;-70
2023/10/22 11:24:59;;;;;;;1.23;1.10;;;;;;;12.18;100.00;100476.84;6205248;28;20510;-72
2023/10/22 11:28:21;;;;;;;1.70;1.60;;;;;;;12.12;100.00;100485.56;6211533;28;20604;-71
2023/10/22 11:31:55;;;;;;;1.40;1.30;;;;;;;12.11;100.00;100492.81;6208258;28;20225;-70
2023/10/22 11:35:15;;;;;;;2.90;1.50;;;;;;;12.26;100.00;100493.09;6203377;28;20331;-71
2023/10/22 11:38:41;;;;;;;2.20;1.73;;;;;;;12.42;100.00;100498.63;6193118;28;20261;-73
2023/10/22 11:42:03;;;;;;;2.87;1.30;;;;;;;12.41;100.00;100502.38;6204875;28;20237;-70
2023/10/22 11:45:24;;;;;;;2.53;2.30;;;;;;;12.36;100.00;100510.94;6212133;28;20225;-70
2023/10/22 11:48:46;;;;;;;2.23;2.03;;;;;;;12.50;100.00;100523.03;6209544;28;20316;-70
2023/10/22 11:52:07;;;;;;;1.70;1.57;;;;;;;12.57;100.00;100534.94;6214620;28;20237;-71
2023/10/22 11:55:27;;;;;;;1.87;1.43;;;;;;;12.59;100.00;100522.94;6200467;28;20245;-71
2023/10/22 11:58:52;;;;;;;2.40;2.20;;;;;;;12.69;100.00;100536.38;6206182;28;20234;-70
2023/10/22 12:02:14;;;;;;;1.73;1.63;;;;;;;12.68;100.00;100545.50;6200997;28;20248;-72
2023/10/22 12:05:37;;;;;;;1.40;1.30;;;;;;;12.76;100.00;100540.16;6199421;28;20647;-73
2023/10/22 12:08:58;;;;;;;1.43;1.27;;;;;;;12.72;100.00;100555.81;6199519;28;20233;-71
2023/10/22 12:12:20;;;;;;;2.30;1.50;;;;;;;12.67;100.00;100555.47;6204036;28;20253;-71
2023/10/22 12:15:40;;;;;;;2.80;1.87;;;;;;;12.63;100.00;100570.31;6197277;28;20233;-71
2023/10/22 12:19:01;;;;;;;1.23;1.00;;;;;;;12.67;100.00;100560.00;6192076;28;20252;-72
2023/10/22 12:22:25;;;;;;;2.40;1.40;;;;;;;12.74;100.00;100570.06;6202681;28;20320;-72
2023/10/22 12:25:46;;;;;;;1.70;1.10;;;;;;;12.92;100.00;100570.00;6208000;28;20233;-71
2023/10/22 12:29:08;;;;;;;0.80;0.80;;;;;;;13.06;100.00;100574.88;6207305;28;20229;-71
2023/10/22 12:32:29;;;;;;;2.27;1.00;;;;;;;13.47;100.00;100568.69;6202608;28;20245;-71
2023/10/22 12:35:50;;;;;;;1.47;1.17;;;;;;;13.58;100.00;100576.50;6205784;28;20232;-71
2023/10/22 12:39:13;;;;;;;2.50;1.80;;;;;;;13.65;100.00;100576.69;6201353;28;20252;-71
2023/10/22 12:42:36;;;;;;;1.70;1.53;;;;;;;13.73;100.00;100581.28;6208617;28;20233;-72
2023/10/22 12:45:57;;;;;;;2.10;1.07;;;;;;;13.51;100.00;100591.72;6198705;28;20237;-71
2023/10/22 12:49:18;;;;;;;2.40;1.10;;;;;;;13.88;100.00;100591.34;6207833;28;20279;-71
2023/10/22 12:52:39;;;;;;;1.67;1.10;;;;;;;13.80;100.00;100591.34;6204995;28;20221;-71
2023/10/22 12:56:02;;;;;;;1.97;1.80;;;;;;;13.99;100.00;100582.94;6210801;28;20331;-73
2023/10/22 12:59:23;;;;;;;2.70;1.73;;;;;;;14.23;100.00;100590.25;6205456;28;20230;-71
2023/10/22 13:02:44;;;;;;;4.73;1.70;;;;;;;14.45;100.00;100594.22;6207523;28;20260;-73
2023/10/22 13:06:06;;;;;;;2.60;1.77;;;;;;;15.02;100.00;100585.03;6203983;28;20229;-72
2023/10/22 13:09:27;;;;;;;1.20;1.10;;;;;;;15.36;100.00;100590.25;6205750;28;20489;-71
2023/10/22 13:12:49;;;;;;;1.37;1.20;;;;;;;15.05;100.00;100593.72;6208125;28;20234;-75
2023/10/22 13:16:10;;;;;;;1.97;1.67;;;;;;;14.82;100.00;100605.44;6204808;28;20530;-74
2023/10/22 13:19:31;;;;;;;2.20;1.17;;;;;;;14.91;100.00;100615.28;6208897;28;20225;-71
2023/10/22 13:22:52;;;;;;;1.03;0.93;;;;;;;15.32;100.00;100607.91;6204746;28;20245;-73
2023/10/22 13:26:13;;;;;;;2.13;1.00;;;;;;;15.05;100.00;100609.16;6204778;28;20229;-78
2023/10/22 13:29:36;;;;;;;2.17;1.07;;;;;;;15.11;100.00;100609.31;6203599;28;20225;-79
2023/10/22 13:32:58;;;;;;;2.23;1.13;;;;;;;15.02;100.00;100614.91;6212105;28;20229;-74
2023/10/22 13:36:19;;;;;;;1.37;0.90;;;;;;;14.54;100.00;100629.31;6208265;28;20233;-70
2023/10/22 13:39:40;;;;;;;1.60;1.43;;;;;;;14.41;100.00;100626.28;6213056;28;20233;-73
2023/10/22 13:43:01;;;;;;;2.27;1.07;;;;;;;14.33;100.00;100634.41;6200676;28;20233;-77
2023/10/22 13:46:24;;;;;;;2.10;1.00;;;;;;;14.47;100.00;100630.16;6209944;28;20233;-77
2023/10/22 13:49:45;;;;;;;1.63;1.27;;;;;;;14.27;100.00;100635.00;6210743;28;20237;-70
2023/10/22 13:53:08;;;;;;;2.40;1.27;;;;;;;14.12;100.00;100631.25;6208192;28;20237;-71
2023/10/22 13:56:30;;;;;;;1.27;1.07;;;;;;;14.07;100.00;100639.88;6214215;28;20221;-69
2023/10/22 13:59:50;;;;;;;1.20;1.10;;;;;;;14.20;100.00;100640.25;6206254;28;20245;-69
2023/10/22 14:03:13;;;;;;;1.33;0.97;;;;;;;14.18;100.00;100639.56;6209693;28;20249;-75
2023/10/22 14:06:34;;;;;;;7.73;1.40;;;;;;;14.19;100.00;100643.97;6202637;28;20646;-75
2023/10/22 14:09:55;;;;;;;1.47;1.10;;;;;;;14.29;100.00;100649.28;6210933;28;20233;-79
2023/10/22 14:13:17;;;;;;;0.80;0.70;;;;;;;14.33;100.00;100647.94;6205286;28;20233;-72
2023/10/22 14:16:38;;;;;;;0.77;0.77;;;;;;;14.50;100.00;100654.25;6200976;28;20270;-70
2023/10/22 14:20:00;;;;;;;2.07;0.83;;;;;;;14.91;100.00;100653.28;6207530;28;20230;-71
2023/10/22 14:23:22;;;;;;;1.57;1.13;;;;;;;14.54;100.00;100666.47;6207588;28;20317;-70
2023/10/22 14:26:43;;;;;;;4.77;2.27;;;;;;;14.25;100.00;100675.84;6207667;28;20230;-71
2023/10/22 14:30:05;;;;;;;2.53;1.23;;;;;;;14.12;100.00;100671.91;6207010;28;20234;-73
2023/10/22 14:33:26;;;;;;;1.60;1.50;;;;;;;14.00;100.00;100678.63;6208444;28;20228;-74
2023/10/22 14:36:48;;;;;;;1.23;1.13;;;;;;;13.98;100.00;100684.22;6204180;28;20241;-71
2023/10/22 14:40:10;;;;;;;1.43;1.23;;;;;;;13.86;100.00;100692.78;6204350;28;20234;-72
2023/10/22 14:43:31;;;;;;;1.40;1.23;;;;;;;13.67;100.00;100687.59;6204761;28;20418;-70
2023/10/22 14:46:52;;;;;;;2.23;1.67;;;;;;;13.68;100.00;100692.88;6210716;28;20221;-70
2023/10/22 14:50:13;;;;;;;1.87;1.00;;;;;;;13.70;100.00;100693.56;6206628;28;20225;-69
2023/10/22 14:53:36;;;;;;;1.20;1.10;;;;;;;13.64;100.00;100700.47;6197473;28;20237;-70
2023/10/22 14:56:57;;;;;;;2.20;1.50;;;;;;;13.65;100.00;100704.03;6208400;28;20233;-69
2023/10/22 15:00:19;;;;;;;1.07;0.97;;;;;;;13.63;100.00;100712.31;6208562;28;20264;-69
2023/10/22 15:03:39;;;;;;;1.10;1.00;;;;;;;13.68;100.00;100719.97;6204970;28;20256;-70
2023/10/22 15:07:00;;;;;;;2.30;1.07;;;;;;;13.64;100.00;100724.84;6212889;28;20821;-69
2023/10/22 15:10:23;;;;;;;1.97;1.23;;;;;;;13.64;100.00;100721.31;6207094;28;20603;-70
2023/10/22 15:13:43;;;;;;;2.60;1.07;;;;;;;13.64;100.00;100729.44;6211437;28;20237;-69
2023/10/22 15:17:05;;;;;;;2.07;1.10;;;;;;;13.60;100.00;100738.88;6200644;28;20225;-70
2023/10/22 15:20:26;;;;;;;1.03;1.03;;;;;;;13.57;100.00;100733.78;6203192;28;21050;-69
2023/10/22 15:23:47;;;;;;;1.90;1.53;;;;;;;13.49;100.00;100740.00;6205569;28;20393;-70
2023/10/22 15:27:09;;;;;;;1.80;1.70;;;;;;;13.38;100.00;100751.06;6203343;28;20228;-71
2023/10/22 15:30:31;;;;;;;1.60;1.20;;;;;;;13.26;100.00;100752.31;6201881;28;20242;-69
2023/10/22 15:33:52;;;;;;;1.83;1.70;;;;;;;13.13;100.00;100756.41;6206947;28;20233;-71
2023/10/22 15:37:13;;;;;;;4.33;2.23;;;;;;;13.05;100.00;100756.34;6209478;28;20865;-70